createdAt,value
2023-04-29T00:01:52.121Z,100318.43
2023-04-29T00:04:24.443Z,100313.41
2023-04-29T00:06:56.228Z,100317.81
2023-04-29T00:09:27.996Z,100317.81
2023-04-29T00:11:59.846Z,100320.25
2023-04-29T00:14:31.608Z,100324.03
2023-04-29T00:17:03.845Z,100322.64
2023-04-29T00:19:35.503Z,100318.70
2023-04-29T00:22:07.354Z,100318.70
2023-04-29T00:24:39.214Z,100314.55
2023-04-29T00:27:12.029Z,100309.64
2023-04-29T00:29:44.462Z,100315.03
2023-04-29T00:32:16.508Z,100312.92
2023-04-29T00:34:48.532Z,100311.42
2023-04-29T00:37:20.411Z,100305.77
2023-04-29T00:39:52.294Z,100309.92
2023-04-29T00:42:24.300Z,100311.63
2023-04-29T00:44:55.933Z,100305.40
2023-04-29T00:47:27.663Z,100309.55
2023-04-29T00:49:59.209Z,100312.25
2023-04-29T00:52:34.477Z,100309.26
2023-04-29T00:55:07.470Z,100311.73
2023-04-29T00:57:39.483Z,100306.45
2023-04-29T01:00:11.869Z,100302.63
2023-04-29T01:02:44.210Z,100317.19
2023-04-29T01:05:15.878Z,100319.63
2023-04-29T01:08:09.497Z,100316.38
2023-04-29T01:10:45.203Z,100319.69
2023-04-29T01:13:32.953Z,100320.52
2023-04-29T01:16:08.076Z,100325.08
2023-04-29T01:18:44.592Z,100319.89
2023-04-29T01:21:19.089Z,100320.98
2023-04-29T01:23:55.334Z,100320.21
2023-04-29T01:26:28.441Z,100328.98
2023-04-29T01:29:28.689Z,100327.47
2023-04-29T01:35:02.465Z,100331.61
2023-04-29T01:37:47.163Z,100339.53
2023-04-29T01:40:24.877Z,100340.88
2023-04-29T01:43:05.091Z,100340.98
2023-04-29T01:45:37.666Z,100334.82
2023-04-29T01:48:09.760Z,100339.33
2023-04-29T01:50:41.524Z,100343.48
2023-04-29T01:53:15.446Z,100349.27
2023-04-29T01:55:47.900Z,100352.53
2023-04-29T01:58:21.556Z,100354.86
2023-04-29T02:00:57.738Z,100360.55
2023-04-29T02:03:31.086Z,100361.73
2023-04-29T02:06:04.540Z,100372.33
2023-04-29T02:08:36.131Z,100368.60
2023-04-29T02:11:08.030Z,100368.91
2023-04-29T02:13:41.600Z,100366.88
2023-04-29T02:16:14.662Z,100364.89
2023-04-29T02:18:48.058Z,100365.84
2023-04-29T02:21:19.618Z,100361.90
2023-04-29T02:23:51.825Z,100365.84
2023-04-29T02:26:25.366Z,100368.63
2023-04-29T02:28:58.957Z,100357.97
2023-04-29T02:31:31.000Z,100366.72
2023-04-29T02:34:02.638Z,100364.70
2023-04-29T02:36:34.240Z,100363.34
2023-04-29T02:39:05.816Z,100365.94
2023-04-29T02:41:37.554Z,100371.42
2023-04-29T02:44:09.116Z,100374.31
2023-04-29T02:46:42.382Z,100377.98
2023-04-29T02:49:14.458Z,100378.95
2023-04-29T02:51:46.182Z,100380.20
2023-04-29T02:54:18.174Z,100382.09
2023-04-29T02:56:49.974Z,100386.63
2023-04-29T02:59:21.574Z,100393.46
2023-04-29T03:01:54.605Z,100399.31
2023-04-29T03:04:26.465Z,100397.50
2023-04-29T03:06:59.289Z,100400.66
2023-04-29T03:09:32.016Z,100402.01
2023-04-29T03:12:03.990Z,100412.78
2023-04-29T03:14:36.535Z,100399.59
2023-04-29T03:17:08.375Z,100406.42
2023-04-29T03:19:40.173Z,100416.59
2023-04-29T03:22:12.440Z,100418.61
2023-04-29T03:24:45.487Z,100424.64
2023-04-29T03:27:17.812Z,100426.56
2023-04-29T03:29:49.778Z,100425.19
2023-04-29T03:32:21.417Z,100426.30
2023-04-29T03:34:53.585Z,100431.08
2023-04-29T03:37:26.979Z,100436.33
2023-04-29T03:40:00.535Z,100430.02
2023-04-29T03:42:32.542Z,100437.28
2023-04-29T03:45:04.434Z,100438.02
2023-04-29T03:47:36.363Z,100438.73
2023-04-29T03:50:08.991Z,100447.62
2023-04-29T03:52:41.924Z,100441.59
2023-04-29T03:55:15.268Z,100442.69
2023-04-29T03:57:47.610Z,100437.02
2023-04-29T04:00:20.734Z,100437.98
2023-04-29T04:02:54.460Z,100440.19
2023-04-29T04:05:26.521Z,100443.16
2023-04-29T04:08:00.983Z,100445.45
2023-04-29T04:10:40.896Z,100450.93
2023-04-29T04:13:14.234Z,100451.54
2023-04-29T04:15:52.754Z,100456.08
2023-04-29T04:18:24.846Z,100449.95
2023-04-29T04:20:56.534Z,100452.49
2023-04-29T04:23:29.478Z,100449.12
2023-04-29T04:26:02.276Z,100454.95
2023-04-29T04:28:48.223Z,100467.08
2023-04-29T04:31:39.035Z,100464.64
2023-04-29T04:34:11.462Z,100466.92
2023-04-29T04:36:43.578Z,100456.09
2023-04-29T04:39:15.185Z,100462.02
2023-04-29T04:41:46.951Z,100458.34
2023-04-29T04:44:19.265Z,100456.61
2023-04-29T04:46:56.791Z,100459.69
2023-04-29T04:49:34.068Z,100454.15
2023-04-29T04:52:06.201Z,100456.22
2023-04-29T04:54:38.613Z,100457.64
2023-04-29T04:57:15.800Z,100455.02
2023-04-29T04:59:48.626Z,100455.45
2023-04-29T05:02:21.463Z,100453.78
2023-04-29T05:04:54.145Z,100450.65
2023-04-29T05:07:27.052Z,100452.02
2023-04-29T05:10:00.760Z,100452.91
2023-04-29T05:12:35.435Z,100455.66
2023-04-29T05:15:08.129Z,100452.87
2023-04-29T05:17:39.964Z,100458.75
2023-04-29T05:20:12.175Z,100454.76
2023-04-29T05:22:44.188Z,100449.06
2023-04-29T05:25:17.044Z,100446.77
2023-04-29T05:27:48.807Z,100458.10
2023-04-29T05:30:22.200Z,100459.47
2023-04-29T05:32:53.906Z,100461.16
2023-04-29T05:35:25.705Z,100458.72
2023-04-29T05:37:58.687Z,100469.14
2023-04-29T05:40:32.437Z,100465.09
2023-04-29T05:43:05.671Z,100468.13
2023-04-29T05:45:37.876Z,100468.98
2023-04-29T05:48:09.515Z,100465.02
2023-04-29T05:50:41.703Z,100460.56
2023-04-29T05:53:13.612Z,100458.88
2023-04-29T05:55:46.775Z,100470.13
2023-04-29T05:58:19.909Z,100466.95
2023-04-29T06:00:51.545Z,100465.92
2023-04-29T06:03:25.180Z,100466.09
2023-04-29T06:05:59.156Z,100458.49
2023-04-29T06:08:38.538Z,100465.09
2023-04-29T06:11:12.317Z,100473.31
2023-04-29T06:13:44.550Z,100459.31
2023-04-29T06:16:16.189Z,100462.91
2023-04-29T06:18:48.219Z,100471.00
2023-04-29T06:21:19.947Z,100468.42
2023-04-29T06:23:52.772Z,100465.72
2023-04-29T06:26:25.872Z,100465.01
2023-04-29T06:28:57.689Z,100466.38
2023-04-29T06:31:29.613Z,100470.45
2023-04-29T06:34:03.105Z,100467.16
2023-04-29T06:36:35.966Z,100466.55
2023-04-29T06:39:24.386Z,100462.12
2023-04-29T06:41:58.927Z,100459.62
2023-04-29T06:44:48.713Z,100461.84
2023-04-29T06:47:24.886Z,100461.58
2023-04-29T06:50:01.276Z,100466.45
2023-04-29T06:52:33.806Z,100460.59
2023-04-29T06:55:05.992Z,100461.88
2023-04-29T06:57:37.955Z,100468.75
2023-04-29T07:00:10.817Z,100466.09
2023-04-29T07:02:42.481Z,100475.02
2023-04-29T07:05:14.252Z,100471.40
2023-04-29T07:07:47.889Z,100482.35
2023-04-29T07:10:21.185Z,100473.15
2023-04-29T07:12:52.889Z,100476.72
2023-04-29T07:15:26.204Z,100472.27
2023-04-29T07:17:58.053Z,100473.81
2023-04-29T07:20:30.095Z,100484.98
2023-04-29T07:23:02.101Z,100477.94
2023-04-29T07:25:34.291Z,100476.44
2023-04-29T07:28:06.705Z,100460.54
2023-04-29T07:30:38.802Z,100468.25
2023-04-29T07:33:10.462Z,100470.84
2023-04-29T07:35:44.713Z,100467.25
2023-04-29T07:38:16.811Z,100470.67
2023-04-29T07:40:48.751Z,100470.55
2023-04-29T07:43:20.607Z,100465.54
2023-04-29T07:45:52.640Z,100477.18
2023-04-29T07:48:25.535Z,100461.89
2023-04-29T07:50:57.869Z,100462.68
2023-04-29T07:53:29.627Z,100460.09
2023-04-29T07:56:02.985Z,100459.75
2023-04-29T07:58:35.315Z,100452.34
2023-04-29T08:01:14.410Z,100454.20
2023-04-29T08:03:46.761Z,100452.81
2023-04-29T08:06:22.049Z,100455.91
2023-04-29T08:08:53.706Z,100440.32
2023-04-29T08:11:26.289Z,100456.44
2023-04-29T08:13:59.650Z,100449.55
2023-04-29T08:16:31.980Z,100443.68
2023-04-29T08:19:03.933Z,100445.53
2023-04-29T08:21:35.659Z,100439.41
2023-04-29T08:24:07.657Z,100433.55
2023-04-29T08:26:50.677Z,100437.59
2023-04-29T08:29:22.374Z,100442.22
2023-04-29T08:31:54.376Z,100434.11
2023-04-29T08:34:26.950Z,100439.69
2023-04-29T08:36:58.785Z,100436.57
2023-04-29T08:39:33.685Z,100436.84
2023-04-29T08:42:11.566Z,100435.91
2023-04-29T08:44:43.228Z,100433.55
2023-04-29T08:47:14.853Z,100436.48
2023-04-29T08:49:46.409Z,100432.84
2023-04-29T08:52:18.159Z,100435.59
2023-04-29T08:54:50.014Z,100444.11
2023-04-29T08:57:21.821Z,100429.48
2023-04-29T08:59:53.620Z,100437.63
2023-04-29T09:02:25.290Z,100441.36
2023-04-29T09:05:11.447Z,100441.15
2023-04-29T09:07:43.368Z,100436.74
2023-04-29T09:10:15.133Z,100441.89
2023-04-29T09:12:46.973Z,100442.47
2023-04-29T09:15:19.407Z,100438.68
2023-04-29T09:17:51.341Z,100443.95
2023-04-29T09:20:26.457Z,100430.11
2023-04-29T09:23:04.926Z,100435.26
2023-04-29T09:25:37.280Z,100429.11
2023-04-29T09:28:18.366Z,100423.44
2023-04-29T09:30:50.792Z,100422.30
2023-04-29T09:33:22.658Z,100420.59
2023-04-29T09:35:54.275Z,100427.30
2023-04-29T09:38:34.740Z,100428.22
2023-04-29T09:41:12.068Z,100426.41
2023-04-29T09:43:44.095Z,100422.70
2023-04-29T09:46:16.198Z,100428.44
2023-04-29T09:48:48.881Z,100426.94
2023-04-29T09:51:20.566Z,100421.45
2023-04-29T09:53:52.217Z,100431.96
2023-04-29T09:56:24.442Z,100415.80
2023-04-29T09:58:57.385Z,100421.85
2023-04-29T10:01:29.013Z,100415.25
2023-04-29T10:04:00.834Z,100416.72
2023-04-29T10:06:32.626Z,100409.05
2023-04-29T10:09:07.324Z,100407.34
2023-04-29T10:11:39.874Z,100404.33
2023-04-29T10:14:16.981Z,100397.23
2023-04-29T10:17:10.139Z,100404.45
2023-04-29T10:19:47.933Z,100402.86
2023-04-29T10:22:34.807Z,100403.89
2023-04-29T10:25:07.231Z,100400.19
2023-04-29T10:27:39.277Z,100400.19
2023-04-29T10:30:26.425Z,100406.70
2023-04-29T10:33:00.397Z,100399.98
2023-04-29T10:35:32.489Z,100388.36
2023-04-29T10:38:05.922Z,100391.62
2023-04-29T10:40:47.255Z,100382.63
2023-04-29T10:43:26.471Z,100384.13
2023-04-29T10:46:23.821Z,100375.26
2023-04-29T10:49:00.672Z,100382.16
2023-04-29T10:51:34.418Z,100374.00
2023-04-29T10:54:11.749Z,100369.75
2023-04-29T10:56:54.367Z,100377.58
2023-04-29T10:59:38.555Z,100376.20
2023-04-29T11:02:11.437Z,100369.52
2023-04-29T11:05:10.962Z,100372.36
2023-04-29T11:07:44.423Z,100369.13
2023-04-29T11:10:16.241Z,100363.53
2023-04-29T11:12:48.246Z,100355.84
2023-04-29T11:15:19.953Z,100358.71
2023-04-29T11:17:51.694Z,100352.67
2023-04-29T11:20:24.186Z,100349.45
2023-04-29T11:22:55.808Z,100344.08
2023-04-29T11:25:28.531Z,100341.95
2023-04-29T11:28:01.925Z,100343.13
2023-04-29T11:30:33.682Z,100338.95
2023-04-29T11:33:05.565Z,100349.23
2023-04-29T11:35:37.470Z,100348.55
2023-04-29T11:38:09.091Z,100339.56
2023-04-29T11:40:45.612Z,100344.66
2023-04-29T11:43:20.473Z,100334.85
2023-04-29T11:45:52.871Z,100333.38
2023-04-29T11:48:25.892Z,100331.09
2023-04-29T11:51:00.818Z,100338.73
2023-04-29T11:53:32.777Z,100325.83
2023-04-29T11:56:04.946Z,100325.75
2023-04-29T11:58:37.035Z,100326.66
2023-04-29T12:01:08.686Z,100327.48
2023-04-29T12:03:41.223Z,100319.77
2023-04-29T12:06:15.592Z,100315.02
2023-04-29T12:08:48.523Z,100299.74
2023-04-29T12:11:20.234Z,100299.44
2023-04-29T12:13:52.058Z,100296.59
2023-04-29T12:16:25.776Z,100301.00
2023-04-29T12:18:58.785Z,100293.17
2023-04-29T12:21:31.926Z,100286.70
2023-04-29T12:24:04.022Z,100299.50
2023-04-29T12:26:36.310Z,100293.91
2023-04-29T12:29:08.006Z,100291.87
2023-04-29T12:31:39.728Z,100296.17
2023-04-29T12:34:11.532Z,100284.75
2023-04-29T12:36:46.496Z,100285.80
2023-04-29T12:39:19.715Z,100283.27
2023-04-29T12:41:51.257Z,100283.08
2023-04-29T12:44:23.056Z,100277.95
2023-04-29T12:46:58.224Z,100277.80
2023-04-29T12:49:29.052Z,100271.97
2023-04-29T12:52:00.740Z,100274.12
2023-04-29T12:54:32.852Z,100271.98
2023-04-29T12:57:04.891Z,100258.56
2023-04-29T12:59:36.973Z,100253.69
2023-04-29T13:02:09.287Z,100251.19
2023-04-29T13:04:43.564Z,100247.50
2023-04-29T13:07:15.006Z,100240.00
2023-04-29T13:09:46.902Z,100242.41
2023-04-29T13:12:18.404Z,100237.28
2023-04-29T13:14:51.365Z,100243.91
2023-04-29T13:17:23.186Z,100242.86
2023-04-29T13:19:54.992Z,100236.28
2023-04-29T13:22:29.381Z,100235.55
2023-04-29T13:25:01.008Z,100238.30
2023-04-29T13:27:33.240Z,100245.50
2023-04-29T13:30:16.275Z,100239.06
2023-04-29T13:32:54.919Z,100245.11
2023-04-29T13:35:21.075Z,100240.12
2023-04-29T13:37:52.745Z,100240.34
2023-04-29T13:40:27.752Z,100237.78
2023-04-29T13:43:04.371Z,100236.47
2023-04-29T13:45:32.238Z,100243.42
2023-04-29T13:48:12.006Z,100248.33
2023-04-29T13:51:22.421Z,100243.42
2023-04-29T13:53:41.238Z,100246.36
2023-04-29T14:03:25.532Z,100236.90
2023-04-29T14:05:57.239Z,100234.05
2023-04-29T14:08:28.968Z,100229.09
2023-04-29T14:11:00.794Z,100238.73
2023-04-29T14:13:32.652Z,100225.01
2023-04-29T14:16:06.192Z,100234.00
2023-04-29T14:18:37.992Z,100224.23
2023-04-29T14:21:11.480Z,100222.58
2023-04-29T14:23:43.439Z,100221.02
2023-04-29T14:28:48.698Z,100212.13
2023-04-29T14:31:20.349Z,100221.44
2023-04-29T14:36:16.227Z,100217.92
2023-04-29T14:38:47.952Z,100212.82
2023-04-29T14:44:01.838Z,100219.06
2023-04-29T14:46:33.757Z,100225.91
2023-04-29T14:49:06.128Z,100224.41
2023-04-29T14:51:38.052Z,100219.98
2023-04-29T14:54:11.583Z,100222.38
2023-04-29T14:56:43.277Z,100228.23
2023-04-29T14:59:14.868Z,100218.64
2023-04-29T15:01:46.758Z,100215.34
2023-04-29T15:04:18.924Z,100219.30
2023-04-29T15:06:50.984Z,100223.05
2023-04-29T15:09:23.509Z,100225.43
2023-04-29T15:11:55.347Z,100226.13
2023-04-29T15:14:26.954Z,100220.80
2023-04-29T15:16:58.564Z,100229.54
2023-04-29T15:19:30.423Z,100217.20
2023-04-29T15:22:02.049Z,100209.33
2023-04-29T15:24:34.273Z,100204.19
2023-04-29T15:27:05.879Z,100202.83
2023-04-29T15:29:38.661Z,100212.39
2023-04-29T15:32:10.875Z,100207.92
2023-04-29T15:34:42.707Z,100206.02
2023-04-29T15:37:14.372Z,100208.53
2023-04-29T15:39:46.373Z,100204.97
2023-04-29T15:42:18.170Z,100201.69
2023-04-29T15:44:49.921Z,100201.69
2023-04-29T15:47:22.810Z,100208.84
2023-04-29T15:49:56.756Z,100214.27
2023-04-29T15:52:28.801Z,100218.70
2023-04-29T15:55:00.497Z,100217.66
2023-04-29T15:57:34.557Z,100219.36
2023-04-29T16:00:08.312Z,100227.20
2023-04-29T16:02:40.262Z,100225.46
2023-04-29T16:05:12.167Z,100221.02
2023-04-29T16:07:44.036Z,100223.91
2023-04-29T16:10:16.293Z,100217.23
2023-04-29T16:12:47.837Z,100220.47
2023-04-29T16:15:19.623Z,100213.96
2023-04-29T16:17:52.066Z,100217.52
2023-04-29T16:20:23.662Z,100217.34
2023-04-29T16:22:55.360Z,100214.61
2023-04-29T16:25:27.005Z,100220.92
2023-04-29T16:27:58.844Z,100221.91
2023-04-29T16:30:30.472Z,100214.03
2023-04-29T16:33:02.213Z,100212.47
2023-04-29T16:35:34.339Z,100220.28
2023-04-29T16:38:05.932Z,100220.44
2023-04-29T16:40:37.490Z,100225.01
2023-04-29T16:43:09.683Z,100219.53
2023-04-29T16:45:41.683Z,100216.94
2023-04-29T16:48:13.269Z,100213.14
2023-04-29T16:50:44.963Z,100209.67
2023-04-29T16:53:16.806Z,100220.88
2023-04-29T16:55:49.636Z,100222.22
2023-04-29T16:58:21.850Z,100222.54
2023-04-29T17:00:55.281Z,100219.09
2023-04-29T17:03:26.970Z,100217.70
2023-04-29T17:05:59.434Z,100219.70
2023-04-29T17:08:31.133Z,100220.29
2023-04-29T17:11:02.991Z,100215.61
2023-04-29T17:13:35.189Z,100211.64
2023-04-29T17:16:07.720Z,100223.55
2023-04-29T17:18:39.739Z,100219.55
2023-04-29T17:21:11.681Z,100226.48
2023-04-29T17:23:43.412Z,100219.45
2023-04-29T17:26:15.067Z,100225.02
2023-04-29T17:28:46.718Z,100223.24
2023-04-29T17:31:20.117Z,100230.17
2023-04-29T17:33:56.845Z,100229.91
2023-04-29T17:36:28.916Z,100225.94
2023-04-29T17:39:00.665Z,100226.54
2023-04-29T17:41:33.667Z,100232.14
2023-04-29T17:44:05.205Z,100238.91
2023-04-29T17:46:37.587Z,100247.05
2023-04-29T17:49:09.199Z,100240.19
2023-04-29T17:51:41.057Z,100238.91
2023-04-29T17:54:12.828Z,100244.83
2023-04-29T17:56:44.461Z,100235.22
2023-04-29T18:01:59.319Z,100242.43
2023-04-29T18:04:30.986Z,100238.79
2023-04-29T18:07:03.585Z,100231.25
2023-04-29T18:09:35.959Z,100237.33
2023-04-29T18:12:07.977Z,100235.02
2023-04-29T18:14:40.117Z,100238.53
2023-04-29T18:17:12.077Z,100242.07
2023-04-29T18:19:45.257Z,100234.39
2023-04-29T18:22:17.425Z,100238.42
2023-04-29T18:24:49.868Z,100240.23
2023-04-29T18:27:22.123Z,100252.42
2023-04-29T18:29:54.000Z,100246.05
2023-04-29T18:32:26.191Z,100245.86
2023-04-29T18:34:59.621Z,100246.49
2023-04-29T18:37:31.630Z,100243.22
2023-04-29T18:40:04.921Z,100241.43
2023-04-29T18:42:36.778Z,100242.06
2023-04-29T18:45:09.457Z,100237.09
2023-04-29T18:47:41.479Z,100236.52
2023-04-29T18:50:14.218Z,100232.72
2023-04-29T18:52:45.907Z,100233.50
2023-04-29T18:55:17.697Z,100231.80
2023-04-29T18:57:49.388Z,100228.52
2023-04-29T19:00:22.011Z,100226.73
2023-04-29T19:02:54.544Z,100221.09
2023-04-29T19:05:26.504Z,100226.09
2023-04-29T19:07:58.617Z,100222.81
2023-04-29T19:10:31.094Z,100224.46
2023-04-29T19:13:03.068Z,100222.02
2023-04-29T19:15:36.382Z,100213.81
2023-04-29T19:18:08.499Z,100219.16
2023-04-29T19:20:42.805Z,100216.37
2023-04-29T19:23:14.361Z,100208.64
2023-04-29T19:25:46.311Z,100210.28
2023-04-29T19:28:19.353Z,100207.50
2023-04-29T19:30:51.279Z,100201.12
2023-04-29T19:33:23.680Z,100201.41
2023-04-29T19:35:55.506Z,100201.70
2023-04-29T19:38:27.767Z,100197.91
2023-04-29T19:40:59.696Z,100197.84
2023-04-29T19:43:32.088Z,100188.61
2023-04-29T19:46:04.444Z,100194.46
2023-04-29T19:48:37.775Z,100194.12
2023-04-29T19:51:09.888Z,100194.89
2023-04-29T19:53:41.869Z,100197.22
2023-04-29T19:56:13.916Z,100190.71
2023-04-29T19:58:46.295Z,100191.65
2023-04-29T20:01:18.198Z,100197.02
2023-04-29T20:03:49.977Z,100191.72
2023-04-29T20:06:21.820Z,100190.12
2023-04-29T20:08:53.733Z,100177.83
2023-04-29T20:11:25.803Z,100174.03
2023-04-29T20:13:57.488Z,100174.69
2023-04-29T20:16:30.136Z,100177.16
2023-04-29T20:19:02.074Z,100171.03
2023-04-29T20:21:33.970Z,100167.10
2023-04-29T20:24:06.057Z,100167.38
2023-04-29T20:26:37.745Z,100168.88
2023-04-29T20:29:09.411Z,100171.38
2023-04-29T20:31:41.384Z,100173.22
2023-04-29T20:34:13.467Z,100173.02
2023-04-29T20:36:46.284Z,100178.33
2023-04-29T20:39:18.294Z,100172.20
2023-04-29T20:41:50.302Z,100173.70
2023-04-29T20:44:22.562Z,100174.56
2023-04-29T20:46:54.521Z,100168.76
2023-04-29T20:49:26.988Z,100172.13
2023-04-29T20:51:59.728Z,100165.23
2023-04-29T20:54:31.866Z,100165.02
2023-04-29T20:57:06.849Z,100162.80
2023-04-29T20:59:38.882Z,100162.09
2023-04-29T21:02:11.525Z,100157.81
2023-04-29T21:04:43.593Z,100162.99
2023-04-29T21:07:15.299Z,100162.56
2023-04-29T21:09:48.772Z,100156.05
2023-04-29T21:12:20.373Z,100158.55
2023-04-29T21:14:52.650Z,100147.73
2023-04-29T21:17:24.327Z,100149.39
2023-04-29T21:19:57.077Z,100145.32
2023-04-29T21:22:28.868Z,100151.72
2023-04-29T21:25:00.615Z,100148.79
2023-04-29T21:27:32.944Z,100149.93
2023-04-29T21:30:05.194Z,100149.55
2023-04-29T21:32:37.198Z,100150.91
2023-04-29T21:35:09.618Z,100158.34
2023-04-29T21:37:41.327Z,100163.38
2023-04-29T21:40:14.484Z,100166.39
2023-04-29T21:42:46.579Z,100169.11
2023-04-29T21:45:18.215Z,100165.17
2023-04-29T21:47:49.926Z,100162.95
2023-04-29T21:50:21.823Z,100159.88
2023-04-29T21:52:55.235Z,100159.14
2023-04-29T21:55:26.767Z,100161.12
2023-04-29T21:57:58.442Z,100164.10
2023-04-29T22:00:33.924Z,100158.33
2023-04-29T22:03:06.235Z,100170.53
2023-04-29T22:05:39.572Z,100166.11
2023-04-29T22:08:11.528Z,100164.41
2023-04-29T22:10:43.716Z,100160.69
2023-04-29T22:13:15.704Z,100161.30
2023-04-29T22:15:47.524Z,100156.53
2023-04-29T22:18:19.208Z,100152.95
2023-04-29T22:20:51.698Z,100151.25
2023-04-29T22:23:26.224Z,100156.80
2023-04-29T22:25:57.758Z,100158.64
2023-04-29T22:28:29.363Z,100163.20
2023-04-29T22:31:01.025Z,100167.53
2023-04-29T22:33:32.719Z,100171.89
2023-04-29T22:38:47.662Z,100172.17
2023-04-29T22:41:19.731Z,100164.69
2023-04-29T22:43:52.933Z,100156.95
2023-04-29T22:46:25.702Z,100159.93
2023-04-29T22:48:57.246Z,100163.77
2023-04-29T22:51:29.178Z,100159.62
2023-04-29T22:54:00.771Z,100163.08
2023-04-29T22:56:32.709Z,100157.53
2023-04-29T22:59:04.370Z,100155.66
2023-04-29T23:01:36.893Z,100147.53
2023-04-29T23:04:09.008Z,100157.41
2023-04-29T23:06:40.648Z,100148.40
2023-04-29T23:09:12.590Z,100153.08
2023-04-29T23:11:44.577Z,100161.73
2023-04-29T23:14:16.146Z,100156.09
2023-04-29T23:16:47.767Z,100160.50
2023-04-29T23:19:19.499Z,100162.86
2023-04-29T23:21:51.268Z,100163.47
2023-04-29T23:24:23.022Z,100159.41
2023-04-29T23:26:54.662Z,100160.16
2023-04-29T23:29:26.401Z,100165.35
2023-04-29T23:31:58.054Z,100167.97
2023-04-29T23:34:29.605Z,100168.97
2023-04-29T23:37:01.456Z,100170.94
2023-04-29T23:39:33.290Z,100164.77
2023-04-29T23:42:05.055Z,100160.71
2023-04-29T23:44:38.951Z,100158.13
2023-04-29T23:47:11.654Z,100166.13
2023-04-29T23:49:43.414Z,100180.19
2023-04-29T23:52:14.970Z,100169.09
2023-04-29T23:54:46.555Z,100161.62
2023-04-29T23:57:18.285Z,100167.88
2023-04-29T23:59:49.874Z,100167.29
